Time;durP1;ratioP1;P1;durP2;ratioP2;P2;SDS_P1;SDS_P2;PMS_P1;PMS_P2;Temp;Humidity;BMP_temperature;BMP_pressure;BME280_temperature;BME280_humidity;BME280_pressure;Samples;Min_cycle;Max_cycle;Signal;HPM_P1;HPM_P2
2022/04/06 00:00:06;;;;;;;5.70;2.50;;;14.80;94.60;;;;;;5093645;28;20119;-62
2022/04/06 00:02:32;;;;;;;5.53;2.67;;;14.90;94.90;;;;;;5094306;28;20048;-62
2022/04/06 00:05:00;;;;;;;8.63;2.90;;;15.20;93.80;;;;;;5077387;28;20117;-62
2022/04/06 00:07:26;;;;;;;6.68;2.65;;;15.00;94.80;;;;;;5074120;28;20041;-62
2022/04/06 00:09:52;;;;;;;7.10;3.25;;;15.00;93.70;;;;;;5073823;28;20052;-63
2022/04/06 00:12:18;;;;;;;7.43;2.60;;;;;;;;;;5072837;28;20056;-62
2022/04/06 00:14:44;;;;;;;7.07;3.10;;;15.10;94.90;;;;;;5075646;28;20124;-63
2022/04/06 00:17:12;;;;;;;7.78;3.40;;;15.10;93.70;;;;;;5086695;28;20140;-63
2022/04/06 00:19:38;;;;;;;8.18;3.15;;;14.90;94.70;;;;;;5093298;28;20119;-62
2022/04/06 00:22:04;;;;;;;7.65;3.15;;;14.90;94.90;;;;;;5093792;28;20129;-61
2022/04/06 00:24:30;;;;;;;6.72;3.03;;;14.90;94.60;;;;;;5090525;28;20055;-63
2022/04/06 00:26:56;;;;;;;7.10;2.85;;;15.00;94.80;;;;;;5093810;28;20059;-62
2022/04/06 00:29:21;;;;;;;7.82;3.17;;;15.00;94.80;;;;;;5094143;28;20068;-61
2022/04/06 00:31:47;;;;;;;8.73;3.45;;;15.10;94.70;;;;;;5080712;28;20153;-61
2022/04/06 00:34:13;;;;;;;7.38;3.10;;;14.90;94.70;;;;;;5073787;28;20128;-61
2022/04/06 00:36:39;;;;;;;8.90;3.30;;;15.10;93.70;;;;;;5074999;28;20040;-62
2022/04/06 00:39:04;;;;;;;9.93;3.55;;;15.00;94.80;;;;;;5072229;28;20106;-62
2022/04/06 00:41:30;;;;;;;9.65;3.30;;;14.70;94.60;;;;;;5073703;28;20050;-61
2022/04/06 00:44:16;;;;;;;9.05;3.47;;;15.10;94.80;;;;;;5073650;28;20040;-62
2022/04/06 00:46:42;;;;;;;9.57;3.83;;;14.70;94.60;;;;;;5074968;28;20051;-61
2022/04/06 00:49:11;;;;;;;11.05;3.83;;;15.00;94.70;;;;;;5087583;28;20496;-61
2022/04/06 00:51:41;;;;;;;9.15;3.72;;;14.80;93.50;;;;;;5093434;28;20088;-61
2022/04/06 00:54:06;;;;;;;8.73;3.85;;;15.00;94.70;;;;;;5092506;28;20043;-61
2022/04/06 00:56:32;;;;;;;8.23;3.70;;;14.80;93.50;;;;;;5090497;28;20497;-61
2022/04/06 00:58:58;;;;;;;10.02;3.88;;;15.00;93.60;;;;;;5093428;28;20386;-62
2022/04/06 01:01:24;;;;;;;8.73;3.90;;;14.90;94.70;;;;;;5093531;28;20044;-61
2022/04/06 01:03:49;;;;;;;10.10;3.78;;;14.90;93.50;;;;;;5092004;28;20123;-62
2022/04/06 01:06:16;;;;;;;11.18;3.95;;;;;;;;;;5092335;28;20105;-62
2022/04/06 01:08:41;;;;;;;10.77;4.10;;;15.20;94.80;;;;;;5073430;28;20109;-62
2022/04/06 01:11:07;;;;;;;10.43;4.60;;;15.10;93.60;;;;;;5072267;28;20494;-61
2022/04/06 01:13:33;;;;;;;12.57;4.60;;;15.00;94.60;;;;;;5073366;28;20098;-61
2022/04/06 01:15:59;;;;;;;10.32;4.38;;;15.10;93.60;;;;;;5071879;28;20071;-62
2022/04/06 01:18:24;;;;;;;13.02;5.43;;;14.90;94.60;;;;;;5072166;28;20036;-62
2022/04/06 01:20:50;;;;;;;10.68;4.50;;;14.80;94.70;;;;;;5072044;28;20040;-61
2022/04/06 01:23:16;;;;;;;13.05;5.45;;;14.60;94.50;;;;;;5074905;28;20498;-61
2022/04/06 01:25:41;;;;;;;10.98;4.60;;;14.90;94.50;;;;;;5073189;28;20045;-62
2022/04/06 01:28:07;;;;;;;11.52;5.03;;;14.90;93.40;;;;;;5080265;28;20040;-61
2022/04/06 01:30:33;;;;;;;10.60;5.43;;;14.50;94.40;;;;;;5092982;28;20122;-62
2022/04/06 01:32:59;;;;;;;13.23;6.15;;;14.90;94.60;;;;;;5084088;28;20039;-61
2022/04/06 01:35:25;;;;;;;11.43;5.57;;;15.00;94.70;;;;;;5071664;28;20059;-61
2022/04/06 01:37:50;;;;;;;10.38;5.10;;;14.70;94.50;;;;;;5073647;28;20033;-62
2022/04/06 01:40:16;;;;;;;11.35;5.53;;;14.80;94.60;;;;;;5090027;28;20044;-61
2022/04/06 01:42:42;;;;;;;15.38;5.57;;;14.80;94.50;;;;;;5090564;28;20059;-62
2022/04/06 01:45:08;;;;;;;15.60;6.00;;;15.00;92.90;;;;;;5073005;28;20078;-62
2022/04/06 01:47:34;;;;;;;12.70;5.60;;;14.90;93.40;;;;;;5073092;28;20110;-61
2022/04/06 01:52:44;;;;;;;13.02;5.55;;;14.80;93.40;;;;;;5080577;28;20127;-61
2022/04/06 01:55:13;;;;;;;14.60;5.78;;;14.80;93.20;;;;;;5092921;28;20458;-64
2022/04/06 01:57:39;;;;;;;11.73;5.88;;;14.90;93.40;;;;;;5092635;28;20131;-61
2022/04/06 02:00:09;;;;;;;14.13;6.05;;;15.10;94.60;;;;;;5091813;28;20070;-62
2022/04/06 02:02:35;;;;;;;11.13;5.35;;;14.90;94.50;;;;;;5090149;28;20159;-62
2022/04/06 02:05:01;;;;;;;13.40;6.15;;;15.00;93.50;;;;;;5093450;28;20457;-62
2022/04/06 02:07:27;;;;;;;10.88;5.68;;;14.90;94.60;;;;;;5096748;28;20119;-62
2022/04/06 02:09:53;;;;;;;15.27;7.55;;;14.90;94.50;;;;;;5096411;28;20040;-62
2022/04/06 02:12:22;;;;;;;11.50;6.00;;;;;;;;;;5093043;28;20544;-62
2022/04/06 02:14:48;;;;;;;14.25;6.07;;;;;;;;;;5081228;28;20039;-62
2022/04/06 02:17:14;;;;;;;11.00;5.90;;;15.00;94.50;;;;;;5096532;28;20390;-62
2022/04/06 02:19:40;;;;;;;11.73;5.68;;;14.90;94.60;;;;;;5078491;28;20036;-61
2022/04/06 02:22:06;;;;;;;16.58;6.50;;;15.00;94.60;;;;;;5087450;28;20036;-62
2022/04/06 02:24:32;;;;;;;11.82;5.88;;;;;;;;;;5096205;28;20044;-61
2022/04/06 02:26:58;;;;;;;13.60;6.18;;;;;;;;;;5095053;28;20132;-62
2022/04/06 02:29:25;;;;;;;12.80;5.30;;;;;;;;;;5094812;28;20413;-62
2022/04/06 02:31:51;;;;;;;10.10;5.28;;;;;;;;;;5083291;28;20044;-62
2022/04/06 02:34:16;;;;;;;14.95;5.68;;;14.60;94.50;;;;;;5095910;28;20048;-62
2022/04/06 02:36:42;;;;;;;15.25;5.65;;;14.70;94.50;;;;;;5096196;28;20127;-61
2022/04/06 02:39:08;;;;;;;10.27;5.45;;;15.20;94.60;;;;;;5094196;28;20126;-62
2022/04/06 02:41:34;;;;;;;12.15;5.45;;;14.90;94.50;;;;;;5092616;28;20044;-64
2022/04/06 02:44:00;;;;;;;11.82;5.05;;;14.90;94.60;;;;;;5076589;28;20501;-62
2022/04/06 02:46:25;;;;;;;10.80;5.45;;;14.80;94.50;;;;;;5076900;28;20036;-61
2022/04/06 02:48:51;;;;;;;11.60;5.30;;;14.90;94.50;;;;;;5094763;28;20389;-63
2022/04/06 02:51:17;;;;;;;11.15;5.28;;;14.80;94.60;;;;;;5095897;28;20405;-62
2022/04/06 02:53:43;;;;;;;12.25;5.78;;;14.90;93.40;;;;;;5082200;28;20048;-63
2022/04/06 02:56:09;;;;;;;12.55;5.20;;;;;;;;;;5075250;28;20444;-62
2022/04/06 02:58:35;;;;;;;12.05;5.50;;;14.80;93.30;;;;;;5075226;28;20048;-63
2022/04/06 03:01:00;;;;;;;10.23;5.40;;;14.90;94.50;;;;;;5089619;28;20181;-62
2022/04/06 03:03:26;;;;;;;12.68;5.20;;;14.80;94.50;;;;;;5090272;28;20055;-63
2022/04/06 03:05:52;;;;;;;12.45;5.78;;;14.80;93.40;;;;;;5084889;28;20464;-63
2022/04/06 03:08:18;;;;;;;10.13;5.05;;;15.00;94.60;;;;;;5093405;28;20497;-62
2022/04/06 03:10:44;;;;;;;9.32;5.20;;;14.90;93.50;;;;;;5095536;28;20115;-64
2022/04/06 03:13:10;;;;;;;10.85;4.68;;;14.60;94.50;;;;;;5095425;28;20572;-62
2022/04/06 03:15:35;;;;;;;13.75;5.25;;;15.00;94.70;;;;;;5090892;28;20401;-62
2022/04/06 03:18:02;;;;;;;8.57;4.70;;;14.90;93.40;;;;;;5095098;28;20105;-63
2022/04/06 03:20:28;;;;;;;9.95;5.03;;;14.90;94.50;;;;;;5091672;28;20123;-62
2022/04/06 03:22:54;;;;;;;12.45;4.93;;;;;;;;;;5074773;28;20124;-67
2022/04/06 03:25:20;;;;;;;10.88;4.97;;;14.90;94.50;;;;;;5093202;28;20047;-62
2022/04/06 03:27:46;;;;;;;11.07;3.95;;;14.80;94.60;;;;;;5095194;28;20047;-63
2022/04/06 03:30:12;;;;;;;9.80;4.60;;;15.10;94.60;;;;;;5093919;28;20482;-62
2022/04/06 03:32:38;;;;;;;9.77;4.03;;;15.00;94.50;;;;;;5095077;28;20032;-62
2022/04/06 03:35:05;;;;;;;11.60;4.45;;;15.00;94.50;;;;;;5080150;28;20037;-63
2022/04/06 03:37:31;;;;;;;11.93;4.93;;;;;;;;;;5076839;28;20378;-62
2022/04/06 03:39:57;;;;;;;9.07;3.78;;;15.00;94.60;;;;;;5094620;28;20048;-64
2022/04/06 03:42:23;;;;;;;10.25;4.07;;;15.10;94.70;;;;;;5094915;28;20131;-63
2022/04/06 03:44:49;;;;;;;8.05;3.67;;;15.00;94.50;;;;;;5091109;28;20047;-63
2022/04/06 03:47:15;;;;;;;9.10;3.35;;;14.90;94.60;;;;;;5094512;28;20127;-64
2022/04/06 03:49:41;;;;;;;9.23;3.72;;;14.80;94.40;;;;;;5094347;28;20074;-63
2022/04/06 03:52:07;;;;;;;8.93;3.78;;;14.80;94.40;;;;;;5093037;28;20102;-62
2022/04/06 03:54:33;;;;;;;9.07;3.42;;;14.50;94.50;;;;;;5088134;28;20061;-63
2022/04/06 03:56:59;;;;;;;9.82;3.55;;;;;;;;;;5074051;28;20131;-62
2022/04/06 03:59:25;;;;;;;7.05;3.20;;;15.00;94.70;;;;;;5076704;28;20049;-62
2022/04/06 04:01:50;;;;;;;9.48;3.35;;;14.80;94.60;;;;;;5094573;28;20032;-64
2022/04/06 04:04:16;;;;;;;10.20;3.50;;;14.80;94.50;;;;;;5090240;28;20067;-62
2022/04/06 04:06:42;;;;;;;8.80;3.40;;;14.80;93.40;;;;;;5094436;28;20057;-62
2022/04/06 04:09:08;;;;;;;10.82;3.25;;;14.70;94.40;;;;;;5094417;28;20043;-62
2022/04/06 04:11:33;;;;;;;9.63;3.45;;;14.70;94.50;;;;;;5091269;28;20435;-62
2022/04/06 04:14:00;;;;;;;9.07;3.10;;;;;;;;;;5074472;28;20040;-62
2022/04/06 04:16:26;;;;;;;11.30;4.07;;;14.80;94.50;;;;;;5074023;28;20040;-62
2022/04/06 04:18:52;;;;;;;10.20;3.28;;;;;;;;;;5093483;28;20097;-62
2022/04/06 04:21:32;;;;;;;7.28;3.15;;;14.70;94.40;;;;;;5094237;28;20455;-62
2022/04/06 04:24:05;;;;;;;8.85;3.05;;;14.80;93.40;;;;;;5093863;28;20477;-61
2022/04/06 04:26:31;;;;;;;7.53;3.10;;;15.00;92.90;;;;;;5076157;28;20494;-64
2022/04/06 04:28:58;;;;;;;11.00;3.50;;;14.90;93.30;;;;;;5074397;28;20040;-62
2022/04/06 04:31:23;;;;;;;8.32;3.05;;;14.80;94.40;;;;;;5073800;28;20041;-63
2022/04/06 04:33:49;;;;;;;8.38;3.47;;;14.50;94.50;;;;;;5074105;28;20482;-63
2022/04/06 04:36:16;;;;;;;9.85;3.55;;;14.90;94.50;;;;;;5080410;28;20036;-63
2022/04/06 04:38:42;;;;;;;8.88;3.53;;;14.90;94.40;;;;;;5092662;28;20044;-63
2022/04/06 04:41:08;;;;;;;8.63;3.45;;;14.70;94.50;;;;;;5093963;28;20394;-62
2022/04/06 04:43:34;;;;;;;11.88;3.80;;;14.90;94.50;;;;;;5093534;28;20039;-64
2022/04/06 04:46:01;;;;;;;10.85;4.18;;;;;;;;;;5085931;28;20048;-63
2022/04/06 04:48:26;;;;;;;10.18;4.00;;;14.70;93.40;;;;;;5092334;28;20040;-62
2022/04/06 04:50:52;;;;;;;10.32;4.07;;;;;;;;;;5093792;28;20051;-63
2022/04/06 04:53:18;;;;;;;11.93;4.70;;;14.70;94.70;;;;;;5092330;28;20371;-63
2022/04/06 04:55:44;;;;;;;10.93;4.10;;;;;;;;;;5091697;28;20050;-63
2022/04/06 04:58:10;;;;;;;11.95;3.88;;;14.70;94.50;;;;;;5091498;28;20048;-62
2022/04/06 05:00:36;;;;;;;15.73;5.10;;;14.70;93.40;;;;;;5092962;28;20047;-62
2022/04/06 05:03:02;;;;;;;11.70;4.50;;;14.60;94.30;;;;;;5085201;28;20067;-62
2022/04/06 05:05:28;;;;;;;10.88;4.35;;;14.90;94.50;;;;;;5073384;28;20056;-62
2022/04/06 05:07:57;;;;;;;10.07;4.53;;;14.80;94.30;;;;;;5082402;28;20047;-63
2022/04/06 05:10:23;;;;;;;11.73;4.53;;;14.90;94.70;;;;;;5093351;28;20056;-62
2022/04/06 05:12:48;;;;;;;12.65;5.05;;;14.80;93.40;;;;;;5092335;28;20044;-63
2022/04/06 05:15:14;;;;;;;12.27;4.80;;;14.80;94.50;;;;;;5093558;28;20063;-62
2022/04/06 05:17:40;;;;;;;10.90;4.97;;;14.70;94.50;;;;;;5090256;28;20486;-63
2022/04/06 05:20:07;;;;;;;9.52;4.60;;;;;;;;;;5085747;28;20157;-62
2022/04/06 05:22:33;;;;;;;10.77;4.68;;;14.80;94.60;;;;;;5073216;28;20413;-62
2022/04/06 05:25:00;;;;;;;13.23;5.35;;;14.60;94.40;;;;;;5080747;28;20037;-62
2022/04/06 05:27:26;;;;;;;14.68;5.95;;;;;;;;;;5090885;28;20051;-61
2022/04/06 05:29:52;;;;;;;9.90;5.18;;;14.80;93.40;;;;;;5091737;28;20083;-63
2022/04/06 05:32:18;;;;;;;10.93;4.43;;;14.70;94.50;;;;;;5093449;28;20441;-62
2022/04/06 05:34:43;;;;;;;11.23;4.95;;;14.60;94.60;;;;;;5093405;28;20056;-63
2022/04/06 05:37:09;;;;;;;14.30;5.18;;;14.80;94.50;;;;;;5085640;28;20048;-62
2022/04/06 05:39:35;;;;;;;11.13;4.85;;;14.50;94.50;;;;;;5086034;28;20044;-63
2022/04/06 05:42:01;;;;;;;11.45;4.82;;;14.80;94.50;;;;;;5096963;28;20040;-61
2022/04/06 05:44:26;;;;;;;11.63;4.70;;;14.70;93.40;;;;;;5097236;28;20135;-62
2022/04/06 05:46:52;;;;;;;8.70;4.20;;;14.90;94.60;;;;;;5095577;28;20048;-62
2022/04/06 05:49:18;;;;;;;12.13;4.45;;;14.80;94.70;;;;;;5083237;28;20098;-62
2022/04/06 05:51:44;;;;;;;10.25;4.13;;;14.90;94.30;;;;;;5075862;28;20079;-62
2022/04/06 05:54:10;;;;;;;9.27;3.95;;;;;;;;;;5086108;28;20055;-65
2022/04/06 05:56:36;;;;;;;11.13;3.95;;;15.00;94.60;;;;;;5076514;28;20052;-65
2022/04/06 05:59:02;;;;;;;10.02;3.90;;;15.10;94.50;;;;;;5077339;28;20406;-65
2022/04/06 06:01:28;;;;;;;9.95;3.80;;;15.00;94.50;;;;;;5095768;28;20076;-65
2022/04/06 06:03:53;;;;;;;12.10;3.70;;;14.90;94.50;;;;;;5095812;28;20063;-66
2022/04/06 06:06:20;;;;;;;10.07;3.50;;;;;;;;;;5096340;28;20409;-66
2022/04/06 06:08:47;;;;;;;7.78;3.47;;;14.90;94.70;;;;;;5096295;28;20044;-64
2022/04/06 06:11:12;;;;;;;9.32;4.32;;;15.00;94.40;;;;;;5084311;28;20075;-62
2022/04/06 06:13:38;;;;;;;11.27;3.92;;;15.10;94.50;;;;;;5096110;28;20044;-63
2022/04/06 06:16:05;;;;;;;12.18;3.17;;;15.00;94.40;;;;;;5096239;28;20410;-62
2022/04/06 06:18:31;;;;;;;9.82;3.85;;;15.20;94.70;;;;;;5096517;28;20043;-63
2022/04/06 06:21:00;;;;;;;9.88;3.50;;;15.00;94.40;;;;;;5085368;28;20040;-62
2022/04/06 06:23:28;;;;;;;7.70;3.45;;;;;;;;;;5075459;28;20040;-62
2022/04/06 06:25:55;;;;;;;9.98;3.28;;;15.00;93.20;;;;;;5075545;28;20079;-62
2022/04/06 06:28:23;;;;;;;9.63;3.30;;;;;;;;;;5084309;28;20438;-62
2022/04/06 06:30:52;;;;;;;8.57;3.42;;;15.00;94.30;;;;;;5092239;28;20496;-65
2022/04/06 06:33:18;;;;;;;7.00;3.10;;;14.80;94.20;;;;;;5095582;28;20048;-65
2022/04/06 06:35:46;;;;;;;10.18;3.25;;;15.30;94.50;;;;;;5095470;28;20044;-65
2022/04/06 06:38:12;;;;;;;9.13;3.25;;;15.20;94.50;;;;;;5095988;28;20048;-66
2022/04/06 06:40:38;;;;;;;7.70;3.05;;;15.00;94.40;;;;;;5094915;28;20370;-65
2022/04/06 06:43:05;;;;;;;8.82;3.20;;;;;;;;;;5078401;28;20056;-66
2022/04/06 06:45:31;;;;;;;7.50;2.58;;;15.00;94.20;;;;;;5081391;28;20048;-65
2022/04/06 06:47:59;;;;;;;11.20;3.33;;;15.10;94.30;;;;;;5094995;28;20072;-63
2022/04/06 06:50:26;;;;;;;8.45;2.80;;;15.20;94.30;;;;;;5094128;28;20123;-63
2022/04/06 06:52:57;;;;;;;8.27;2.92;;;15.00;92.90;;;;;;5091387;28;20485;-62
2022/04/06 06:55:23;;;;;;;8.70;2.97;;;15.10;94.40;;;;;;5094284;28;20035;-62
2022/04/06 06:57:55;;;;;;;6.88;2.78;;;15.00;94.20;;;;;;5095036;28;20051;-65
2022/04/06 07:00:21;;;;;;;10.27;2.92;;;15.10;94.20;;;;;;5092866;28;20043;-62
2022/04/06 07:02:48;;;;;;;12.35;3.15;;;15.10;94.20;;;;;;5086674;28;20048;-62
2022/04/06 07:05:15;;;;;;;6.00;2.22;;;14.90;94.20;;;;;;5093317;28;20088;-63
2022/04/06 07:08:08;;;;;;;7.03;2.75;;;15.10;93.10;;;;;;5094686;28;20600;-62
2022/04/06 07:10:34;;;;;;;8.48;2.40;;;15.10;93.20;;;;;;5092050;28;20052;-61
2022/04/06 07:13:00;;;;;;;6.30;2.53;;;15.10;94.30;;;;;;5073330;28;20459;-66
2022/04/06 07:15:26;;;;;;;6.93;2.20;;;15.10;94.20;;;;;;5074384;28;20047;-63
2022/04/06 07:17:56;;;;;;;6.57;2.42;;;14.90;94.30;;;;;;5089895;28;20412;-61
2022/04/06 07:20:25;;;;;;;9.30;2.10;;;14.90;92.60;;;;;;5076863;28;20213;-65
2022/04/06 07:22:52;;;;;;;8.23;2.40;;;15.10;93.90;;;;;;5087085;28;20478;-65
2022/04/06 07:25:20;;;;;;;7.50;2.90;;;15.10;94.20;;;;;;5093759;28;20052;-63
2022/04/06 07:27:46;;;;;;;6.30;2.20;;;15.00;94.20;;;;;;5086504;28;20048;-63
2022/04/06 07:30:16;;;;;;;5.00;1.90;;;;;;;;;;5074215;28;20033;-64
2022/04/06 07:32:42;;;;;;;7.50;2.42;;;15.20;93.40;;;;;;5076128;28;20413;-63
2022/04/06 07:35:09;;;;;;;5.00;1.90;;;15.30;93.80;;;;;;5073682;28;20043;-62
2022/04/06 07:37:40;;;;;;;7.60;2.42;;;15.20;93.00;;;;;;5093288;28;20051;-62
2022/04/06 07:40:10;;;;;;;8.90;2.20;;;15.10;94.30;;;;;;5093770;28;20048;-63
2022/04/06 07:42:37;;;;;;;6.05;1.92;;;15.10;94.20;;;;;;5088839;28;20039;-62
2022/04/06 07:45:04;;;;;;;5.57;1.90;;;15.10;92.90;;;;;;5093767;28;20089;-61
2022/04/06 07:47:32;;;;;;;5.78;2.03;;;15.40;94.40;;;;;;5087443;28;20044;-62
2022/04/06 07:49:58;;;;;;;6.45;1.98;;;;;;;;;;5090061;28;20407;-63
2022/04/06 07:52:25;;;;;;;7.97;1.88;;;15.10;94.30;;;;;;5092637;28;20036;-62
2022/04/06 07:54:51;;;;;;;4.68;1.95;;;;;;;;;;5073405;28;20045;-62
2022/04/06 07:57:20;;;;;;;4.63;1.85;;;15.30;93.00;;;;;;5073649;28;20041;-62
2022/04/06 07:59:46;;;;;;;6.07;2.20;;;15.00;94.30;;;;;;5080856;28;20144;-62
2022/04/06 08:02:12;;;;;;;6.00;1.95;;;;;;;;;;5093607;28;20083;-63
2022/04/06 08:04:38;;;;;;;5.72;2.10;;;15.10;94.30;;;;;;5093314;28;20048;-64
2022/04/06 08:07:04;;;;;;;7.63;2.25;;;;;;;;;;5093096;28;20068;-62
2022/04/06 08:09:31;;;;;;;4.47;2.08;;;;;;;;;;5087421;28;20047;-67
2022/04/06 08:11:56;;;;;;;7.22;2.08;;;15.10;94.30;;;;;;5090522;28;20370;-64
2022/04/06 08:14:22;;;;;;;4.85;2.05;;;14.90;94.30;;;;;;5091179;28;20054;-64
2022/04/06 08:16:48;;;;;;;7.63;1.98;;;15.20;94.40;;;;;;5093310;28;20371;-62
2022/04/06 08:19:14;;;;;;;5.00;2.15;;;15.30;94.50;;;;;;5088795;28;20111;-62
2022/04/06 08:21:40;;;;;;;5.90;2.03;;;14.80;94.40;;;;;;5070290;28;20044;-62
2022/04/06 08:24:06;;;;;;;6.90;2.63;;;15.10;94.40;;;;;;5091561;28;20048;-63
2022/04/06 08:26:32;;;;;;;6.90;2.53;;;14.80;94.30;;;;;;5090699;28;20080;-63
2022/04/06 08:28:58;;;;;;;11.18;2.97;;;15.10;94.40;;;;;;5073472;28;20045;-61
2022/04/06 08:31:24;;;;;;;7.50;2.40;;;;;;;;;;5088011;28;20051;-63
2022/04/06 08:33:50;;;;;;;6.32;2.03;;;;;;;;;;5092094;28;20074;-63
2022/04/06 08:36:16;;;;;;;5.35;1.88;;;15.20;94.40;;;;;;5093046;28;20097;-62
2022/04/06 08:38:43;;;;;;;7.07;2.75;;;14.90;93.00;;;;;;5093771;28;20048;-64
2022/04/06 08:41:09;;;;;;;7.20;2.20;;;15.00;94.40;;;;;;5083192;28;20044;-62
2022/04/06 08:43:34;;;;;;;7.63;2.10;;;15.00;94.30;;;;;;5075481;28;20086;-62
2022/04/06 08:46:00;;;;;;;6.00;2.03;;;;;;;;;;5093250;28;20040;-66
2022/04/06 08:48:28;;;;;;;6.38;2.13;;;14.90;94.30;;;;;;5075693;28;20041;-62
2022/04/06 08:50:54;;;;;;;6.43;1.92;;;15.10;94.40;;;;;;5073199;28;20071;-61
2022/04/06 08:53:20;;;;;;;6.57;2.35;;;15.30;94.40;;;;;;5084657;28;20044;-63
2022/04/06 08:55:46;;;;;;;7.45;2.72;;;;;;;;;;5087019;28;20051;-63
2022/04/06 08:58:12;;;;;;;7.55;2.20;;;15.20;94.40;;;;;;5082360;28;20052;-62
2022/04/06 09:00:38;;;;;;;6.80;2.60;;;15.00;94.30;;;;;;5089340;28;20113;-62
2022/04/06 09:03:04;;;;;;;7.75;2.53;;;;;;;;;;5084295;28;20457;-65
2022/04/06 09:05:32;;;;;;;5.93;2.08;;;;;;;;;;5092854;28;20052;-64
2022/04/06 09:07:59;;;;;;;5.10;2.00;;;14.80;94.30;;;;;;5093010;28;20040;-62
2022/04/06 09:10:29;;;;;;;8.45;2.33;;;15.00;93.00;;;;;;5093004;28;20040;-62
2022/04/06 09:13:23;;;;;;;6.00;2.03;;;15.00;93.30;;;;;;5094351;28;20485;-64
2022/04/06 09:15:53;;;;;;;6.32;2.03;;;15.10;94.00;;;;;;5097015;28;20048;-62
2022/04/06 09:18:24;;;;;;;6.88;2.00;;;14.70;94.30;;;;;;5086191;28;20052;-63
2022/04/06 09:21:00;;;;;;;7.22;2.30;;;15.00;92.50;;;;;;5076615;28;20509;-62
2022/04/06 09:23:30;;;;;;;5.72;2.10;;;14.80;93.90;;;;;;5076530;28;20452;-67
2022/04/06 09:25:58;;;;;;;5.35;2.10;;;;;;;;;;5076572;28;20049;-64
2022/04/06 09:28:24;;;;;;;7.32;2.22;;;15.00;94.40;;;;;;5074932;28;20097;-67
2022/04/06 09:30:51;;;;;;;8.00;2.33;;;15.00;94.40;;;;;;5075559;28;20119;-65
2022/04/06 09:33:19;;;;;;;7.38;2.17;;;15.20;94.20;;;;;;5079226;28;20038;-63
2022/04/06 09:35:44;;;;;;;6.60;2.00;;;15.10;94.40;;;;;;5083648;28;20040;-62
2022/04/06 09:38:10;;;;;;;6.85;2.00;;;;;;;;;;5077337;28;20039;-64
2022/04/06 09:40:40;;;;;;;6.15;2.03;;;;;;;;;;5097002;28;20428;-63
2022/04/06 09:43:09;;;;;;;7.63;2.13;;;15.20;94.50;;;;;;5097231;28;20444;-65
2022/04/06 09:48:20;;;;;;;7.32;2.33;;;;;;;;;;5097103;28;20181;-62
2022/04/06 09:50:55;;;;;;;9.23;3.20;;;15.20;94.50;;;;;;5093169;28;20041;-62
2022/04/06 09:53:25;;;;;;;7.05;2.28;;;;;;;;;;5094016;28;20043;-63
2022/04/06 09:55:53;;;;;;;7.82;2.10;;;15.10;94.40;;;;;;5095773;28;20142;-62
2022/04/06 09:58:19;;;;;;;5.60;1.90;;;15.00;94.40;;;;;;5096954;28;20058;-62
2022/04/06 10:00:45;;;;;;;7.18;2.33;;;15.30;94.50;;;;;;5078779;28;20044;-64
2022/04/06 10:03:13;;;;;;;7.35;2.50;;;14.90;94.30;;;;;;5073094;28;20496;-65
2022/04/06 10:05:39;;;;;;;5.47;2.10;;;15.20;94.40;;;;;;5074385;28;20060;-61
2022/04/06 10:08:23;;;;;;;9.85;2.67;;;15.20;92.60;;;;;;5076379;28;20045;-67
2022/04/06 10:10:53;;;;;;;6.20;2.25;;;15.20;94.40;;;;;;5057890;28;20078;-67
2022/04/06 10:13:19;;;;;;;5.43;2.33;;;15.20;94.60;;;;;;5074511;28;20076;-66
2022/04/06 10:15:46;;;;;;;13.50;2.72;;;;;;;;;;5058588;28;20436;-69
2022/04/06 10:18:14;;;;;;;6.22;2.40;;;15.30;94.60;;;;;;5075072;28;20470;-62
2022/04/06 10:20:48;;;;;;;6.88;2.05;;;15.50;94.50;;;;;;5075928;28;20041;-61
2022/04/06 10:23:23;;;;;;;7.07;2.15;;;15.40;94.40;;;;;;5060636;28;20508;-61
2022/04/06 10:26:04;;;;;;;7.88;2.40;;;15.20;94.40;;;;;;5091259;28;20048;-62
2022/04/06 10:28:33;;;;;;;6.45;2.10;;;15.30;92.90;;;;;;5075356;28;20052;-64
2022/04/06 10:31:16;;;;;;;8.35;2.47;;;15.30;92.50;;;;;;5082240;28;20049;-64
2022/04/06 10:33:41;;;;;;;8.43;2.70;;;15.10;93.50;;;;;;5075990;28;20413;-64
2022/04/06 10:36:20;;;;;;;7.20;2.45;;;15.40;92.60;;;;;;5070648;28;20131;-62
2022/04/06 10:39:05;;;;;;;8.57;2.47;;;15.50;94.50;;;;;;5075918;28;20048;-62
2022/04/06 10:41:34;;;;;;;7.45;2.58;;;15.30;94.50;;;;;;5075572;28;20041;-62
2022/04/06 10:44:00;;;;;;;7.15;2.63;;;15.30;94.60;;;;;;5090445;28;20043;-62
2022/04/06 10:46:38;;;;;;;8.73;2.60;;;15.30;94.50;;;;;;5095936;28;20036;-64
2022/04/06 10:49:07;;;;;;;8.73;2.78;;;15.20;94.50;;;;;;5095517;28;20100;-66
2022/04/06 10:51:34;;;;;;;6.82;2.38;;;15.50;94.60;;;;;;5096096;28;20358;-63
2022/04/06 10:54:20;;;;;;;8.02;2.47;;;;;;;;;;5095564;28;20056;-63
2022/04/06 10:56:48;;;;;;;9.48;2.45;;;15.20;94.50;;;;;;5091858;28;20132;-64
2022/04/06 10:59:17;;;;;;;6.70;2.45;;;15.40;94.60;;;;;;5095278;28;20128;-62
2022/04/06 11:01:46;;;;;;;7.93;2.58;;;;;;;;;;5074318;28;20036;-65
2022/04/06 11:04:22;;;;;;;7.88;2.75;;;15.20;94.60;;;;;;5075043;28;20063;-63
2022/04/06 11:06:49;;;;;;;7.28;2.40;;;14.80;94.50;;;;;;5075274;28;20075;-62
2022/04/06 11:12:19;;;;;;;8.70;2.92;;;;;;;;;;5075301;28;20048;-62
2022/04/06 11:14:47;;;;;;;7.30;2.40;;;15.10;94.60;;;;;;5074026;28;20445;-64
2022/04/06 11:17:34;;;;;;;7.20;2.50;;;15.30;94.70;;;;;;5075774;28;20470;-64
2022/04/06 11:20:07;;;;;;;7.88;2.63;;;15.20;94.60;;;;;;5074883;28;20045;-64
2022/04/06 11:22:34;;;;;;;9.32;2.65;;;15.30;94.70;;;;;;5078114;28;20074;-62
2022/04/06 11:25:00;;;;;;;8.48;2.92;;;15.40;94.70;;;;;;5100880;28;20079;-63
2022/04/06 11:27:35;;;;;;;9.57;2.60;;;15.10;93.50;;;;;;5114130;28;20075;-62
2022/04/06 11:30:09;;;;;;;8.00;2.97;;;15.20;94.70;;;;;;5114412;28;20043;-62
2022/04/06 11:32:36;;;;;;;8.73;2.70;;;15.40;94.80;;;;;;5092797;28;20041;-64
2022/04/06 11:35:09;;;;;;;7.35;2.42;;;15.20;94.60;;;;;;5083091;28;20097;-65
2022/04/06 11:37:41;;;;;;;;;;;15.20;93.60;;;;;;5095065;28;20048;-65
2022/04/06 11:40:08;;;;;;;10.60;2.70;;;15.30;94.70;;;;;;5094690;28;19916;-61
2022/04/06 11:42:33;;;;;;;6.85;2.50;;;15.30;94.90;;;;;;5094611;28;20180;-61
2022/04/06 11:44:59;;;;;;;10.95;3.30;;;15.30;94.80;;;;;;5094534;28;20126;-63
2022/04/06 11:47:33;;;;;;;14.45;3.38;;;15.20;94.80;;;;;;5094806;28;20054;-62
2022/04/06 11:49:59;;;;;;;9.25;3.10;;;15.20;95.10;;;;;;5094875;28;20040;-63
2022/04/06 11:52:25;;;;;;;15.35;3.50;;;15.20;95.00;;;;;;5092590;28;20047;-62
2022/04/06 11:54:52;;;;;;;12.30;3.58;;;15.20;95.20;;;;;;5095003;28;20046;-63
2022/04/06 11:57:18;;;;;;;13.13;3.08;;;15.20;95.30;;;;;;5094672;28;20040;-63
2022/04/06 11:59:56;;;;;;;14.30;3.28;;;15.40;93.50;;;;;;5089053;28;20508;-65
2022/04/06 12:02:22;;;;;;;155.02;12.68;;;15.30;95.30;;;;;;5073553;28;20495;-65
2022/04/06 12:05:04;;;;;;;17.05;3.90;;;15.50;93.50;;;;;;5073144;28;20422;-64
2022/04/06 12:07:30;;;;;;;19.10;3.83;;;15.40;95.20;;;;;;5074433;28;20080;-64
2022/04/06 12:09:56;;;;;;;12.60;3.00;;;15.40;95.00;;;;;;5073463;28;20075;-65
2022/04/06 12:12:23;;;;;;;11.15;3.50;;;15.90;95.30;;;;;;5073355;28;20052;-67
2022/04/06 12:14:51;;;;;;;13.80;4.05;;;15.60;95.20;;;;;;5073654;28;20091;-69
2022/04/06 12:17:17;;;;;;;11.88;3.25;;;15.70;95.20;;;;;;5072310;28;20052;-64
2022/04/06 12:19:43;;;;;;;14.02;3.78;;;;;;;;;;5071870;28;20446;-64
2022/04/06 12:22:13;;;;;;;17.10;3.90;;;15.50;95.10;;;;;;5073151;28;20149;-63
2022/04/06 12:24:40;;;;;;;9.68;3.35;;;16.00;95.10;;;;;;5075301;28;20044;-63
2022/04/06 12:27:06;;;;;;;9.88;3.47;;;15.90;95.10;;;;;;5093124;28;20044;-67
2022/04/06 12:29:32;;;;;;;14.32;4.55;;;16.00;95.20;;;;;;5093262;28;20134;-64
2022/04/06 12:31:58;;;;;;;20.55;4.13;;;16.10;95.10;;;;;;5093333;28;20059;-64
2022/04/06 12:34:34;;;;;;;15.00;4.10;;;;;;;;;;5085686;28;20036;-62
2022/04/06 12:37:29;;;;;;;14.55;3.95;;;16.10;95.10;;;;;;5073050;28;20040;-64
2022/04/06 12:39:51;;;;;;;17.50;4.32;;;16.30;93.70;;;;;;5072694;28;20053;-68
2022/04/06 12:42:16;;;;;;;12.48;3.63;;;16.20;95.10;;;;;;5081634;28;20112;-66
2022/04/06 12:45:01;;;;;;;16.95;3.70;;;16.20;93.80;;;;;;5075242;28;20048;-66
2022/04/06 12:47:26;;;;;;;15.40;3.13;;;16.30;95.00;;;;;;5075115;28;20507;-65
2022/04/06 12:50:09;;;;;;;9.88;3.42;;;;;;;;;;5091982;28;20040;-63
2022/04/06 12:52:37;;;;;;;13.77;3.30;;;16.00;94.70;;;;;;5092580;28;20040;-63
2022/04/06 12:55:07;;;;;;;17.08;3.53;;;16.30;94.80;;;;;;5093248;28;20056;-64
2022/04/06 12:57:37;;;;;;;14.07;3.35;;;16.00;93.80;;;;;;5093003;28;20470;-64
2022/04/06 13:00:10;;;;;;;11.10;3.47;;;16.10;94.60;;;;;;5077614;28;20098;-63
2022/04/06 13:02:37;;;;;;;10.32;3.53;;;16.20;94.50;;;;;;5072826;28;20051;-64
2022/04/06 13:05:10;;;;;;;8.55;3.08;;;16.30;93.00;;;;;;5072677;28;20502;-64
2022/04/06 13:07:36;;;;;;;;;;;;;;;;;;5092981;28;20097;-63